FZAATNCM

Guest
Details From FZAA - NDJILI INTL
To TNCM - St Maarten - Princess Juliana Intl
Flight Number -
Tags decoded
Created
Modified
Stats Distance 8,684 nm / 16,083 km
Max Altitude 0 ft / 0 m
Waypoints 4
Social Downloads 0
Likes 0
Share VATSIM

Download

Looking for another format? Having issues loading an existing format? Contact us
Advertisement - Login to hide

Notes

Requested: FZAA BZ UG856 LV UR979 TNCM Unmatched points: UR979

Route

FZAA BZ LV TNCM

ID Type Via Altitude Latitude Longitude Leg Dist Tot Dist Heading (true) Name
O FZAA APT - 0 ft / 0 m -4.38575˚ 15.44457˚ - 0 nm - NDJILI INTL
BZ VOR - 0 ft / 0 m -4.24561˚ 15.26381˚ 13 nm 13 nm 308° / 308° BRAZZAVILLE MAYA MAYA VOR-DME
LV NDB - 0 ft / 0 m 32.77477˚ -96.77527˚ 6652 nm 6666 nm 304° / 261° CONIS NDB
O TNCM APT - 0 ft / 0 m 18.04089˚ -63.10897˚ 2017 nm 8683 nm 108° / 123° St Maarten - Princess Juliana Intl

Altitude Profile

Advertisement - Login to hide

Weather


0- 5 10 15 20 25 30 35+ Temperature / ° C

Clouds and Precipitation
Forecast for 2017-12-17 18:00 UTC. Updated an hour ago

Ground ~20,000 ft ~40,000 ft Winds

FZAA

Details ICAO FZAA (FIH)
Name NDJILI INTL
Region Democratic Republic of the Congo
Timezone Africa/Kinshasa (UTC+1.0)
Stats Elevation 1,027 ft / 313 m (AMSL)
Location -4.385750° 15.444570°
Runways 1
Magnetic Variation 1.332° W

METAR

FZAA 171600Z 36006KT 8000 FEW022 FEW026TCU 30/23 Q1008 NOSIG

Decode

TAF

TAF FZAA 171100Z 1712/1818 32010KT 8000 FEW024 BECMG 1715/1717 22006KT FEW020 FEW030CB PROB30 TEMPO 1718/1722 TS BECMG 1723/1801 BKN016 BECMG 1811/1813 30008KT SCT023 FEW030CB

Decode

Departure Runways

ID Width Length Bearing (true) Bearing (mag) Surface Threshold Offset Overrun Length
06 197 ft / 60 m 15,430 ft / 4,703 m 57.32° 58.65° Concrete 0 ft / 0 m 0 ft / 0 m
24 197 ft / 60 m 15,430 ft / 4,703 m 237.32° 238.65° Concrete 0 ft / 0 m 220 ft / 67 m

TNCM

Details ICAO TNCM (SXM)
Name St Maarten - Princess Juliana Intl
Region Caribbean Netherlands, Aruba, Curaçao, Sint Maarten
Timezone Unknown (UTC+0.0)
Stats Elevation 12 ft / 4 m (AMSL)
Location 18.040889° -63.108974°
Runways 1
Magnetic Variation 14.325° W

METAR

TNCM 171600Z 05015KT 020V090 8000 3000NE -SHRA BKN012TCU 25/23 Q1018 A3007 TEMPO SHRA RMK SHRA ALQUAD/ TCU N/W

Decode

TAF

TAF TAF AMD TNCM 171404Z 1714/1812 06015G22KT P6SM VCSH SCT018 SCT035 TEMPO 1714/1716 -SHRA BKN014 FM172300 07012KT P6SM SCT022

Decode

Destination Runways

ID Width Length Bearing (true) Bearing (mag) Surface Threshold Offset Overrun Length
10 148 ft / 45 m 7,464 ft / 2,275 m 81.43° 95.76° Asphalt 0 ft / 0 m 151 ft / 46 m
28 148 ft / 45 m 7,464 ft / 2,275 m 261.44° 275.77° Asphalt 397 ft / 121 m 0 ft / 0 m

Popular Alternatives